createdAt,value
2019-02-25T00:02:28.588Z,38.18
2019-02-25T00:06:32.765Z,38.86
2019-02-25T00:10:36.983Z,38.79
2019-02-25T00:14:41.155Z,39.08
2019-02-25T00:18:45.360Z,39.32
2019-02-25T00:22:49.574Z,39.14
2019-02-25T00:26:53.779Z,39.15
2019-02-25T00:30:58.003Z,39.49
2019-02-25T00:35:02.208Z,39.16
2019-02-25T00:39:07.581Z,39.54
2019-02-25T00:43:11.889Z,39.46
2019-02-25T00:47:16.102Z,39.58
2019-02-25T00:51:20.264Z,39.60
2019-02-25T00:55:24.476Z,40.01
2019-02-25T00:59:28.696Z,40.03
2019-02-25T01:03:32.913Z,40.19
2019-02-25T01:07:37.128Z,39.83
2019-02-25T01:11:41.347Z,40.01
2019-02-25T01:15:45.520Z,39.90
2019-02-25T01:19:49.726Z,40.21
2019-02-25T01:23:53.928Z,40.48
2019-02-25T01:27:58.144Z,40.75
2019-02-25T01:32:02.463Z,40.70
2019-02-25T01:36:07.015Z,41.16
2019-02-25T01:40:11.610Z,41.24
2019-02-25T01:44:15.836Z,40.90
2019-02-25T01:48:20.024Z,41.14
2019-02-25T01:52:24.225Z,41.00
2019-02-25T01:56:28.445Z,40.50
2019-02-25T02:00:32.971Z,39.80
2019-02-25T02:04:37.129Z,40.27
2019-02-25T02:08:41.353Z,40.67
2019-02-25T02:12:45.701Z,40.67
2019-02-25T02:16:49.889Z,41.18
2019-02-25T02:20:54.105Z,41.14
2019-02-25T02:24:58.374Z,41.40
2019-02-25T02:29:03.056Z,41.71
2019-02-25T02:33:07.283Z,41.72
2019-02-25T02:37:11.486Z,41.67
2019-02-25T02:41:15.641Z,41.93
2019-02-25T02:45:51.586Z,41.88
2019-02-25T02:49:55.767Z,41.81
2019-02-25T02:53:59.988Z,41.78
2019-02-25T02:58:04.211Z,41.50
2019-02-25T03:02:08.401Z,41.73
2019-02-25T03:06:14.181Z,41.84
2019-02-25T03:10:19.294Z,41.66
2019-02-25T03:14:23.509Z,42.02
2019-02-25T03:18:27.802Z,42.45
2019-02-25T03:22:32.097Z,42.48
2019-02-25T03:26:36.325Z,42.78
2019-02-25T03:30:40.549Z,42.61
2019-02-25T03:34:44.738Z,42.75
2019-02-25T03:38:48.958Z,42.77
2019-02-25T03:42:53.203Z,43.08
2019-02-25T03:46:57.389Z,43.17
2019-02-25T03:51:01.957Z,43.40
2019-02-25T03:55:07.584Z,43.55
2019-02-25T03:59:11.919Z,43.71
2019-02-25T04:03:16.452Z,43.92
2019-02-25T04:07:21.020Z,44.19
2019-02-25T04:11:25.264Z,44.53
2019-02-25T04:15:33.825Z,44.86
2019-02-25T04:19:37.981Z,45.73
2019-02-25T04:23:42.219Z,45.67
2019-02-25T04:27:46.418Z,45.78
2019-02-25T04:31:50.664Z,46.06
2019-02-25T04:35:54.874Z,46.82
2019-02-25T04:39:59.088Z,46.56
2019-02-25T04:44:03.343Z,46.90
2019-02-25T04:48:07.569Z,47.00
2019-02-25T04:52:12.177Z,47.33
2019-02-25T04:56:16.383Z,47.37
2019-02-25T05:00:20.667Z,47.45
2019-02-25T05:04:25.015Z,47.62
2019-02-25T05:08:29.880Z,47.55
2019-02-25T05:12:34.090Z,47.58
2019-02-25T05:16:40.068Z,47.57
2019-02-25T05:20:44.775Z,47.43
2019-02-25T05:24:48.956Z,47.36
2019-02-25T05:28:53.242Z,46.93
2019-02-25T05:32:58.002Z,46.63
2019-02-25T05:37:02.523Z,46.27
2019-02-25T05:41:06.739Z,45.59
2019-02-25T05:45:12.519Z,45.47
2019-02-25T05:49:16.750Z,44.53
2019-02-25T05:53:20.979Z,44.67
2019-02-25T05:57:25.221Z,44.57
2019-02-25T06:01:29.455Z,44.24
2019-02-25T06:05:33.689Z,44.52
2019-02-25T06:09:37.862Z,43.70
2019-02-25T06:13:42.107Z,43.77
2019-02-25T06:17:46.331Z,44.19
2019-02-25T06:21:50.905Z,44.07
2019-02-25T06:25:55.126Z,43.69
2019-02-25T06:29:59.398Z,43.70
2019-02-25T06:34:03.664Z,43.16
2019-02-25T06:38:07.919Z,43.99
2019-02-25T06:42:12.101Z,43.42
2019-02-25T06:46:16.658Z,43.19
2019-02-25T06:50:20.845Z,43.45
2019-02-25T06:54:25.078Z,43.37
2019-02-25T06:58:29.251Z,43.35
2019-02-25T07:02:33.558Z,43.30
2019-02-25T07:06:49.079Z,42.82
2019-02-25T07:11:24.342Z,42.03
2019-02-25T07:16:05.876Z,42.13
2019-02-25T07:20:37.998Z,41.30
2019-02-25T07:24:59.759Z,41.38
2019-02-25T07:29:25.964Z,40.16
2019-02-25T07:34:04.493Z,40.91
2019-02-25T07:38:23.540Z,40.92
2019-02-25T07:42:45.968Z,41.45
2019-02-25T07:47:04.558Z,41.67
2019-02-25T07:51:30.866Z,40.22
2019-02-25T07:56:01.906Z,40.91
2019-02-25T08:00:11.419Z,40.51
2019-02-25T08:04:37.640Z,40.81
2019-02-25T08:09:03.908Z,40.71
2019-02-25T08:13:14.197Z,39.70
2019-02-25T08:17:31.015Z,39.10
2019-02-25T08:21:47.851Z,39.71
2019-02-25T08:26:10.206Z,39.51
2019-02-25T08:30:32.006Z,39.03
2019-02-25T08:34:54.028Z,38.93
2019-02-25T08:39:13.347Z,38.47
2019-02-25T08:43:39.788Z,38.42
2019-02-25T08:48:03.636Z,37.63
2019-02-25T08:52:07.819Z,37.71
2019-02-25T08:56:12.041Z,37.13
2019-02-25T09:00:16.338Z,37.43
2019-02-25T09:04:20.564Z,38.10
2019-02-25T09:08:24.799Z,38.25
2019-02-25T09:12:29.222Z,38.68
2019-02-25T09:16:33.402Z,38.91
2019-02-25T09:20:37.624Z,38.61
2019-02-25T09:24:41.850Z,38.42
2019-02-25T09:28:46.092Z,38.51
2019-02-25T09:32:50.621Z,37.36
2019-02-25T09:36:55.061Z,38.34
2019-02-25T09:40:59.295Z,38.04
2019-02-25T09:45:03.559Z,37.64
2019-02-25T09:49:07.795Z,37.49
2019-02-25T09:53:12.027Z,36.32
2019-02-25T09:57:16.614Z,36.53
2019-02-25T10:01:20.871Z,36.71
2019-02-25T10:05:25.056Z,36.68
2019-02-25T10:09:30.345Z,37.65
2019-02-25T10:13:35.251Z,37.47
2019-02-25T10:17:39.862Z,38.47
2019-02-25T10:21:44.061Z,38.75
2019-02-25T10:25:48.293Z,39.89
2019-02-25T10:29:52.741Z,38.75
2019-02-25T10:33:56.973Z,38.90
2019-02-25T10:38:03.145Z,38.38
2019-02-25T10:42:07.369Z,38.94
2019-02-25T10:46:13.865Z,38.96
2019-02-25T10:50:17.585Z,39.68
2019-02-25T10:54:23.310Z,39.54
2019-02-25T10:58:29.430Z,39.94
2019-02-25T11:02:33.994Z,40.22
2019-02-25T11:06:38.701Z,40.27
2019-02-25T11:10:52.405Z,40.12
2019-02-25T11:14:56.681Z,40.08
2019-02-25T11:19:00.985Z,40.17
2019-02-25T11:23:06.088Z,40.19
2019-02-25T11:27:10.291Z,39.59
2019-02-25T11:31:15.395Z,39.79
2019-02-25T11:35:20.478Z,39.83
2019-02-25T11:39:25.298Z,39.84
2019-02-25T11:43:30.959Z,39.67
2019-02-25T11:47:35.179Z,39.78
2019-02-25T11:51:39.484Z,39.78
2019-02-25T11:55:43.669Z,39.74
2019-02-25T11:59:47.968Z,40.82
2019-02-25T12:03:52.157Z,39.90
2019-02-25T12:07:56.399Z,40.46
2019-02-25T12:12:00.626Z,40.93
2019-02-25T12:16:04.812Z,40.69
2019-02-25T12:20:10.182Z,40.51
2019-02-25T12:24:14.414Z,40.98
2019-02-25T12:28:18.655Z,40.89
2019-02-25T12:32:22.932Z,40.62
2019-02-25T12:36:27.130Z,40.56
2019-02-25T12:40:31.354Z,40.51
2019-02-25T12:44:35.556Z,40.54
2019-02-25T12:48:39.792Z,40.60
2019-02-25T12:52:43.986Z,40.76
2019-02-25T12:56:48.200Z,40.20
2019-02-25T13:00:52.419Z,40.70
2019-02-25T13:04:56.616Z,40.71
2019-02-25T13:09:02.985Z,40.34
2019-02-25T13:13:07.249Z,40.47
2019-02-25T13:17:12.177Z,40.83
2019-02-25T13:21:16.811Z,41.04
2019-02-25T13:25:21.064Z,40.41
2019-02-25T13:29:25.645Z,40.46
2019-02-25T13:33:29.938Z,40.60
2019-02-25T13:37:34.352Z,40.54
2019-02-25T13:41:38.568Z,40.00
2019-02-25T13:45:42.785Z,40.82
2019-02-25T13:49:47.023Z,40.72
2019-02-25T13:53:51.252Z,39.99
2019-02-25T13:57:57.543Z,40.50
2019-02-25T14:02:01.399Z,40.83
2019-02-25T14:06:05.670Z,40.84
2019-02-25T14:10:10.752Z,40.99
2019-02-25T14:14:14.954Z,41.19
2019-02-25T14:18:19.178Z,41.20
2019-02-25T14:22:23.382Z,40.98
2019-02-25T14:26:27.591Z,41.38
2019-02-25T14:30:33.375Z,41.44
2019-02-25T14:34:37.958Z,41.28
2019-02-25T14:38:42.416Z,41.10
2019-02-25T14:42:48.820Z,41.28
2019-02-25T14:46:52.704Z,41.49
2019-02-25T14:50:56.929Z,41.63
2019-02-25T14:55:03.760Z,41.57
2019-02-25T14:59:07.850Z,41.88
2019-02-25T15:03:13.068Z,41.69
2019-02-25T15:07:17.573Z,41.90
2019-02-25T15:11:21.844Z,42.04
2019-02-25T15:15:26.378Z,42.21
2019-02-25T15:19:32.559Z,42.55
2019-02-25T15:23:36.607Z,42.74
2019-02-25T15:27:40.870Z,43.25
2019-02-25T15:31:46.284Z,43.07
2019-02-25T15:35:51.143Z,43.21
2019-02-25T15:39:55.861Z,43.36
2019-02-25T15:44:02.407Z,43.54
2019-02-25T15:48:10.494Z,43.59
2019-02-25T15:52:18.384Z,43.70
2019-02-25T15:56:21.188Z,43.84
2019-02-25T16:00:27.714Z,44.06
2019-02-25T16:04:33.978Z,44.11
2019-02-25T16:08:38.682Z,44.25
2019-02-25T16:12:42.894Z,44.42
2019-02-25T16:16:47.143Z,44.44
2019-02-25T16:20:51.394Z,44.55
2019-02-25T16:24:55.697Z,44.58
2019-02-25T16:29:03.998Z,44.59
2019-02-25T16:33:07.745Z,44.67
2019-02-25T16:37:12.818Z,44.81
2019-02-25T16:41:16.999Z,44.88
2019-02-25T16:45:21.665Z,44.96
2019-02-25T16:49:27.404Z,45.01
2019-02-25T16:53:34.672Z,45.10
2019-02-25T16:57:39.207Z,45.18
2019-02-25T17:01:46.114Z,45.29
2019-02-25T17:05:50.606Z,45.42
2019-02-25T17:09:56.609Z,45.50
2019-02-25T17:14:03.684Z,45.58
2019-02-25T17:18:07.672Z,45.77
2019-02-25T17:22:12.086Z,45.79
2019-02-25T17:26:17.491Z,45.83
2019-02-25T17:30:23.711Z,46.23
2019-02-25T17:34:28.849Z,46.23
2019-02-25T17:38:33.458Z,46.00
2019-02-25T17:42:38.173Z,46.92
2019-02-25T17:46:43.357Z,46.92
2019-02-25T17:50:47.884Z,46.93
2019-02-25T17:54:52.570Z,46.95
2019-02-25T17:58:58.781Z,47.28
2019-02-25T18:03:03.684Z,47.79
2019-02-25T18:07:07.980Z,47.71
2019-02-25T18:11:13.591Z,48.17
2019-02-25T18:15:21.982Z,47.94
2019-02-25T18:19:27.146Z,48.25
2019-02-25T18:23:31.486Z,48.49
2019-02-25T18:27:37.432Z,48.22
2019-02-25T18:31:41.852Z,48.71
2019-02-25T18:35:46.204Z,48.80
2019-02-25T18:39:52.138Z,49.32
2019-02-25T18:43:56.996Z,49.06
2019-02-25T18:48:01.194Z,49.06
2019-02-25T18:52:05.673Z,49.33
2019-02-25T18:56:11.930Z,49.62
2019-02-25T19:00:24.246Z,50.20
2019-02-25T19:04:29.805Z,49.87
2019-02-25T19:08:34.082Z,49.82
2019-02-25T19:12:38.505Z,49.86
2019-02-25T19:16:44.066Z,49.96
2019-02-25T19:20:49.075Z,50.06
2019-02-25T19:24:53.426Z,49.97
2019-02-25T19:28:59.098Z,49.75
2019-02-25T19:33:11.167Z,49.78
2019-02-25T19:37:14.492Z,49.73
2019-02-25T19:41:20.839Z,49.69
2019-02-25T19:45:25.529Z,49.53
2019-02-25T19:49:30.655Z,49.50
2019-02-25T19:53:36.576Z,49.42
2019-02-25T19:57:42.529Z,49.42
2019-02-25T20:01:48.366Z,49.58
2019-02-25T20:05:54.480Z,49.35
2019-02-25T20:09:58.756Z,49.33
2019-02-25T20:14:02.994Z,49.34
2019-02-25T20:18:09.338Z,49.49
2019-02-25T20:22:14.654Z,49.59
2019-02-25T20:26:20.073Z,49.78
2019-02-25T20:30:28.123Z,49.75
2019-02-25T20:34:32.118Z,49.78
2019-02-25T20:38:37.737Z,49.88
2019-02-25T20:42:46.762Z,50.16
2019-02-25T20:46:52.659Z,50.39
2019-02-25T20:50:55.069Z,50.10
2019-02-25T20:55:01.085Z,50.46
2019-02-25T20:59:06.235Z,50.53
2019-02-25T21:03:14.041Z,50.73
2019-02-25T21:07:17.465Z,50.75
2019-02-25T21:11:22.115Z,50.81
2019-02-25T21:15:26.720Z,50.75
2019-02-25T21:19:30.972Z,50.86
2019-02-25T21:23:35.218Z,50.86
2019-02-25T21:27:41.220Z,50.98
2019-02-25T21:31:47.549Z,50.91
2019-02-25T21:35:51.589Z,51.00
2019-02-25T21:39:57.814Z,50.91
2019-02-25T21:44:02.146Z,50.96
2019-02-25T21:48:07.633Z,50.83
2019-02-25T21:52:14.799Z,50.90
2019-02-25T21:56:18.897Z,51.11
2019-02-25T22:00:23.889Z,50.95
2019-02-25T22:04:28.160Z,51.03
2019-02-25T22:08:35.582Z,51.03
2019-02-25T22:12:40.027Z,51.09
2019-02-25T22:16:44.478Z,51.12
2019-02-25T22:20:49.739Z,51.15
2019-02-25T22:24:54.903Z,51.38
2019-02-25T22:29:00.006Z,51.09
2019-02-25T22:33:07.105Z,51.05
2019-02-25T22:37:14.566Z,51.06
2019-02-25T22:41:18.869Z,51.03
2019-02-25T22:45:22.961Z,51.05
2019-02-25T22:49:28.845Z,51.05
2019-02-25T22:53:33.448Z,50.95
2019-02-25T22:57:37.746Z,50.90
2019-02-25T23:01:42.016Z,50.90
2019-02-25T23:05:48.655Z,51.06
2019-02-25T23:09:54.311Z,50.93
2019-02-25T23:13:58.320Z,50.84
2019-02-25T23:18:05.508Z,50.82
2019-02-25T23:22:08.564Z,50.69
2019-02-25T23:26:14.796Z,50.83
2019-02-25T23:30:21.332Z,50.83
2019-02-25T23:34:25.398Z,50.52
2019-02-25T23:38:29.629Z,50.69
2019-02-25T23:42:37.122Z,50.59
2019-02-25T23:46:40.102Z,50.53
2019-02-25T23:50:44.365Z,50.57
2019-02-25T23:54:49.616Z,50.55
2019-02-25T23:58:54.561Z,50.62
